Terminal Aerodrome Forecast
Issued by NWS Charleston, WV

Current Version | Previous Version | Graphics & Text | Print | Product List | Glossary On
Versions: 1 2 3 4 5 6 7 8 9 10 11 12 13 14 15 16 17 18 19 20 21 22 23
436
FTUS41 KRLX 042331
TAFCRW
TAF
KCRW 042331Z 0500/0524 31005KT P6SM BKN035
     FM050500 31005KT P6SM BKN020
     FM050800 30005KT P6SM SCT020 SCT250
     FM051200 00000KT P6SM SCT250=

USA.gov is the U.S. government's official web portal to all federal, state and local government web resources and services.